createdAt,value
2018-06-02T00:00:21.848Z,90.80
2018-06-02T00:02:50.108Z,91.50
2018-06-02T00:05:17.592Z,91.30
2018-06-02T00:07:45.842Z,91.20
2018-06-02T00:10:13.338Z,91.20
2018-06-02T00:12:40.785Z,91.20
2018-06-02T00:15:08.274Z,91.10
2018-06-02T00:17:35.727Z,90.90
2018-06-02T00:20:03.212Z,91.10
2018-06-02T00:22:30.696Z,91.50
2018-06-02T00:24:58.932Z,91.50
2018-06-02T00:27:26.424Z,91.40
2018-06-02T00:29:54.662Z,91.00
2018-06-02T00:32:22.161Z,91.00
2018-06-02T00:34:50.398Z,91.20
2018-06-02T00:37:17.968Z,91.20
2018-06-02T00:39:45.469Z,91.30
2018-06-02T00:42:12.956Z,90.90
2018-06-02T00:44:40.437Z,91.20
2018-06-02T00:47:07.916Z,91.30
2018-06-02T00:49:36.155Z,91.10
2018-06-02T00:52:03.660Z,91.10
2018-06-02T00:54:43.079Z,91.40
2018-06-02T00:57:11.347Z,91.60
2018-06-02T00:59:39.580Z,91.70
2018-06-02T01:02:07.057Z,91.50
2018-06-02T01:04:34.515Z,91.30
2018-06-02T01:07:02.002Z,91.10
2018-06-02T01:09:30.249Z,91.10
2018-06-02T01:11:57.821Z,91.10
2018-06-02T01:14:25.407Z,91.30
2018-06-02T01:16:52.837Z,91.50
2018-06-02T01:19:21.071Z,91.30
2018-06-02T01:21:48.537Z,91.30
2018-06-02T01:24:16.019Z,91.20
2018-06-02T01:26:44.260Z,91.60
2018-06-02T01:29:11.746Z,91.30
2018-06-02T01:31:39.205Z,91.40
2018-06-02T01:34:06.722Z,91.40
2018-06-02T01:36:34.197Z,91.60
2018-06-02T01:39:01.692Z,91.60
2018-06-02T01:41:29.930Z,91.60
2018-06-02T01:43:57.406Z,91.60
2018-06-02T01:46:25.663Z,91.50
2018-06-02T01:48:53.151Z,91.40
2018-06-02T01:51:21.396Z,91.20
2018-06-02T01:53:48.864Z,91.20
2018-06-02T01:56:17.125Z,91.70
2018-06-02T01:58:44.688Z,91.40
2018-06-02T02:01:12.188Z,91.60
2018-06-02T02:03:39.654Z,91.40
2018-06-02T02:06:07.144Z,91.30
2018-06-02T02:08:34.616Z,91.50
2018-06-02T02:11:02.100Z,92.20
2018-06-02T02:13:29.595Z,92.50
2018-06-02T02:15:57.803Z,91.60
2018-06-02T02:18:25.310Z,91.50
2018-06-02T02:20:52.772Z,91.40
2018-06-02T02:23:20.248Z,91.30
2018-06-02T02:25:47.724Z,91.30
2018-06-02T02:28:15.211Z,91.20
2018-06-02T02:30:43.544Z,91.30
2018-06-02T02:33:11.032Z,91.30
2018-06-02T02:35:39.272Z,91.50
2018-06-02T02:38:06.763Z,91.50
2018-06-02T02:40:35.046Z,91.50
2018-06-02T02:43:03.272Z,91.50
2018-06-02T02:45:30.765Z,91.50
2018-06-02T02:47:58.992Z,91.40
2018-06-02T02:50:26.496Z,91.40
2018-06-02T02:52:53.951Z,91.60
2018-06-02T02:55:22.175Z,91.60
2018-06-02T02:57:49.647Z,91.60
2018-06-02T03:00:17.135Z,91.60
2018-06-02T03:02:44.621Z,91.90
2018-06-02T03:05:12.132Z,92.00
2018-06-02T03:07:39.619Z,91.80
2018-06-02T03:10:07.915Z,91.70
2018-06-02T03:12:35.400Z,91.70
2018-06-02T03:15:02.872Z,91.60
2018-06-02T03:17:30.371Z,91.40
2018-06-02T03:19:57.850Z,91.60
2018-06-02T03:22:25.328Z,91.70
2018-06-02T03:24:52.882Z,91.60
2018-06-02T03:27:20.355Z,92.00
2018-06-02T03:29:47.827Z,92.10
2018-06-02T03:32:16.102Z,91.90
2018-06-02T03:34:44.360Z,92.00
2018-06-02T03:37:11.846Z,92.00
2018-06-02T03:39:40.084Z,91.60
2018-06-02T03:42:07.561Z,91.60
2018-06-02T03:44:35.820Z,92.30
2018-06-02T03:47:03.295Z,91.90
2018-06-02T03:49:31.550Z,91.80
2018-06-02T03:51:59.024Z,91.80
2018-06-02T03:54:27.288Z,91.80
2018-06-02T03:56:54.747Z,91.80
2018-06-02T03:59:22.237Z,91.80
2018-06-02T04:01:49.707Z,92.20
2018-06-02T04:04:17.183Z,92.30
2018-06-02T04:06:44.667Z,92.70
2018-06-02T04:09:12.136Z,92.80
2018-06-02T04:11:39.623Z,92.90
2018-06-02T04:14:07.128Z,92.90
2018-06-02T04:16:34.612Z,92.90
2018-06-02T04:19:02.863Z,92.70
2018-06-02T04:21:30.348Z,92.70
2018-06-02T04:23:58.588Z,93.10
2018-06-02T04:26:26.087Z,93.10
2018-06-02T04:28:53.552Z,93.20
2018-06-02T04:31:21.962Z,92.90
2018-06-02T04:33:49.447Z,92.90
2018-06-02T04:36:16.911Z,93.00
2018-06-02T04:38:45.184Z,92.70
2018-06-02T04:41:13.417Z,92.50
2018-06-02T04:43:40.923Z,92.40
2018-06-02T04:46:09.151Z,92.10
2018-06-02T04:48:36.754Z,92.10
2018-06-02T04:51:05.000Z,91.90
2018-06-02T04:53:32.481Z,91.90
2018-06-02T04:56:00.733Z,91.70
2018-06-02T04:58:28.197Z,91.70
2018-06-02T05:00:55.824Z,91.80
2018-06-02T05:03:23.310Z,91.70
2018-06-02T05:05:50.796Z,91.60
2018-06-02T05:08:18.287Z,91.50
2018-06-02T05:10:45.778Z,91.40
2018-06-02T05:13:13.255Z,91.60
2018-06-02T05:15:41.509Z,91.90
2018-06-02T05:18:09.567Z,91.80
2018-06-02T05:20:37.043Z,91.60
2018-06-02T05:23:04.523Z,91.40
2018-06-02T05:25:31.989Z,91.20
2018-06-02T05:27:59.460Z,91.20
2018-06-02T05:30:26.952Z,91.60
2018-06-02T05:32:54.430Z,91.10
2018-06-02T05:35:22.670Z,90.60
2018-06-02T05:37:50.147Z,90.60
2018-06-02T05:40:17.624Z,90.40
2018-06-02T05:42:45.927Z,90.10
2018-06-02T05:45:13.406Z,90.00
2018-06-02T05:47:40.899Z,90.00
2018-06-02T05:50:08.367Z,89.60
2018-06-02T05:52:36.605Z,89.30
2018-06-02T05:55:04.086Z,89.30
2018-06-02T05:57:32.325Z,86.50
2018-06-02T05:59:59.909Z,86.50
2018-06-02T06:02:28.067Z,84.10
2018-06-02T06:04:55.556Z,84.10
2018-06-02T06:07:23.917Z,81.60
2018-06-02T06:09:51.431Z,81.60
2018-06-02T06:12:18.927Z,79.80
2018-06-02T06:14:46.409Z,78.70
2018-06-02T06:17:14.665Z,79.80
2018-06-02T06:19:42.139Z,79.60
2018-06-02T06:22:10.409Z,77.20
2018-06-02T06:24:38.663Z,77.60
2018-06-02T06:27:06.139Z,77.60
2018-06-02T06:29:34.391Z,76.80
2018-06-02T06:32:01.900Z,76.70
2018-06-02T06:34:29.379Z,76.20
2018-06-02T06:36:56.864Z,77.10
2018-06-02T06:39:24.332Z,76.50
2018-06-02T06:41:52.579Z,77.50
2018-06-02T06:44:20.101Z,77.50
2018-06-02T06:46:47.593Z,77.80
2018-06-02T06:49:15.071Z,78.50
2018-06-02T06:51:42.557Z,78.00
2018-06-02T06:54:10.236Z,76.70
2018-06-02T06:56:37.724Z,75.20
2018-06-02T06:59:05.224Z,74.60
2018-06-02T07:01:33.464Z,73.50
2018-06-02T07:04:00.998Z,73.50
2018-06-02T07:06:28.488Z,72.70
2018-06-02T07:08:55.985Z,71.10
2018-06-02T07:11:24.192Z,70.30
2018-06-02T07:13:51.686Z,70.30
2018-06-02T07:16:19.927Z,70.40
2018-06-02T07:18:47.432Z,70.40
2018-06-02T07:21:15.075Z,70.50
2018-06-02T07:23:43.355Z,71.90
2018-06-02T07:26:11.597Z,70.50
2018-06-02T07:28:39.068Z,70.50
2018-06-02T07:31:06.552Z,69.60
2018-06-02T07:33:34.039Z,69.30
2018-06-02T07:36:01.615Z,69.60
2018-06-02T07:38:29.167Z,68.20
2018-06-02T07:40:56.639Z,67.10
2018-06-02T07:43:24.116Z,66.40
2018-06-02T07:45:52.368Z,65.80
2018-06-02T07:48:19.872Z,65.60
2018-06-02T07:50:47.339Z,65.30
2018-06-02T07:53:14.825Z,66.70
2018-06-02T07:55:42.338Z,65.60
2018-06-02T07:58:10.589Z,64.30
2018-06-02T08:00:38.828Z,64.10
2018-06-02T08:03:06.332Z,64.00
2018-06-02T08:05:34.569Z,64.80
2018-06-02T08:08:02.088Z,64.70
2018-06-02T08:10:29.605Z,65.70
2018-06-02T08:12:57.079Z,63.90
2018-06-02T08:15:24.581Z,63.10
2018-06-02T08:17:52.049Z,64.60
2018-06-02T08:20:19.546Z,62.20
2018-06-02T08:22:47.771Z,61.50
2018-06-02T08:25:15.252Z,61.50
2018-06-02T08:27:42.754Z,61.30
2018-06-02T08:30:10.235Z,61.30
2018-06-02T08:32:37.741Z,60.10
2018-06-02T08:35:05.968Z,60.60
2018-06-02T08:37:33.448Z,60.50
2018-06-02T08:40:01.007Z,60.90
2018-06-02T08:42:28.474Z,60.50
2018-06-02T08:44:56.727Z,59.60
2018-06-02T08:47:24.211Z,59.60
2018-06-02T08:49:52.443Z,59.10
2018-06-02T08:52:19.921Z,59.10
2018-06-02T08:54:47.394Z,58.90
2018-06-02T08:57:15.639Z,57.40
2018-06-02T08:59:43.125Z,57.40
2018-06-02T09:02:11.385Z,56.50
2018-06-02T09:04:38.884Z,56.40
2018-06-02T09:07:06.372Z,57.80
2018-06-02T09:09:33.932Z,57.70
2018-06-02T09:12:01.425Z,57.20
2018-06-02T09:14:28.917Z,59.00
2018-06-02T09:16:56.424Z,59.80
2018-06-02T09:19:24.125Z,60.50
2018-06-02T09:21:51.714Z,58.70
2018-06-02T09:24:19.931Z,61.80
2018-06-02T09:26:48.180Z,62.20
2018-06-02T09:29:15.667Z,62.10
2018-06-02T09:31:43.956Z,62.30
2018-06-02T09:34:12.180Z,62.10
2018-06-02T09:36:39.672Z,62.10
2018-06-02T09:39:07.925Z,65.70
2018-06-02T09:41:35.428Z,65.70
2018-06-02T09:44:02.884Z,66.80
2018-06-02T09:46:30.380Z,68.60
2018-06-02T09:48:57.850Z,69.80
2018-06-02T09:51:25.353Z,70.50
2018-06-02T09:53:53.027Z,71.40
2018-06-02T09:56:20.529Z,71.50
2018-06-02T09:58:48.046Z,72.70
2018-06-02T10:01:15.552Z,74.30
2018-06-02T10:03:43.065Z,73.40
2018-06-02T10:06:10.543Z,72.50
2018-06-02T10:08:38.032Z,73.40
2018-06-02T10:11:06.254Z,72.50
2018-06-02T10:13:33.744Z,72.40
2018-06-02T10:16:01.206Z,73.50
2018-06-02T10:18:28.692Z,73.00
2018-06-02T10:20:56.230Z,72.70
2018-06-02T10:23:24.469Z,73.60
2018-06-02T10:25:51.960Z,73.60
2018-06-02T10:28:20.219Z,76.90
2018-06-02T10:30:47.689Z,76.90
2018-06-02T10:33:15.943Z,78.30
2018-06-02T10:35:43.461Z,78.40
2018-06-02T10:38:10.919Z,78.40
2018-06-02T10:40:38.394Z,78.10
2018-06-02T10:43:05.890Z,78.50
2018-06-02T10:45:34.175Z,79.10
2018-06-02T10:48:02.403Z,76.80
2018-06-02T10:50:29.900Z,76.70
2018-06-02T10:52:58.157Z,71.10
2018-06-02T10:55:25.649Z,70.90
2018-06-02T10:57:53.148Z,68.40
2018-06-02T11:00:20.658Z,68.10
2018-06-02T11:02:48.165Z,64.60
2018-06-02T11:05:15.647Z,64.70
2018-06-02T11:07:43.919Z,59.70
2018-06-02T11:10:11.380Z,59.70
2018-06-02T11:12:39.644Z,62.60
2018-06-02T11:15:07.115Z,62.50
2018-06-02T11:17:35.375Z,60.80
2018-06-02T11:20:03.673Z,61.10
2018-06-02T11:22:31.926Z,62.80
2018-06-02T11:24:59.666Z,62.60
2018-06-02T11:27:28.071Z,62.40
2018-06-02T11:29:55.603Z,63.30
2018-06-02T11:32:23.122Z,60.30
2018-06-02T11:34:50.604Z,60.40
2018-06-02T11:37:18.114Z,61.40
2018-06-02T11:39:46.362Z,59.80
2018-06-02T11:42:13.856Z,59.80
2018-06-02T11:44:41.344Z,58.80
2018-06-02T11:47:08.876Z,60.10
2018-06-02T11:49:36.514Z,56.70
2018-06-02T11:52:04.761Z,54.00
2018-06-02T11:54:32.288Z,53.90
2018-06-02T11:56:59.740Z,56.00
2018-06-02T11:59:27.228Z,56.40
2018-06-02T12:01:54.700Z,55.90
2018-06-02T12:04:22.953Z,53.10
2018-06-02T12:06:50.454Z,52.40
2018-06-02T12:09:17.952Z,51.80
2018-06-02T12:11:45.433Z,49.80
2018-06-02T12:14:12.953Z,52.60
2018-06-02T12:16:40.462Z,50.00
2018-06-02T12:19:07.959Z,52.10
2018-06-02T12:21:35.449Z,48.80
2018-06-02T12:24:02.925Z,49.50
2018-06-02T12:26:30.431Z,52.40
2018-06-02T12:28:57.913Z,53.40
2018-06-02T12:31:29.541Z,51.60
2018-06-02T12:33:57.060Z,52.30
2018-06-02T12:36:25.308Z,51.20
2018-06-02T12:38:52.785Z,51.20
2018-06-02T12:41:21.039Z,50.40
2018-06-02T12:43:48.528Z,50.40
2018-06-02T12:46:16.783Z,49.50
2018-06-02T12:48:45.049Z,50.00
2018-06-02T12:51:12.524Z,50.00
2018-06-02T12:53:40.887Z,51.40
2018-06-02T12:56:08.358Z,51.40
2018-06-02T12:58:36.633Z,51.80
2018-06-02T13:01:04.850Z,53.60
2018-06-02T13:03:32.352Z,53.50
2018-06-02T13:06:01.336Z,59.10
2018-06-02T13:08:28.819Z,59.10
2018-06-02T13:10:56.314Z,58.70
2018-06-02T13:13:23.979Z,59.20
2018-06-02T13:15:51.449Z,57.30
2018-06-02T13:18:18.936Z,57.30
2018-06-02T13:20:47.196Z,57.70
2018-06-02T13:23:14.681Z,57.70
2018-06-02T13:25:42.951Z,54.90
2018-06-02T13:28:10.419Z,54.90
2018-06-02T13:30:37.927Z,52.60
2018-06-02T13:33:05.396Z,51.30
2018-06-02T13:35:32.884Z,51.50
2018-06-02T13:38:01.172Z,51.20
2018-06-02T13:40:28.654Z,51.20
2018-06-02T13:42:56.171Z,52.90
2018-06-02T13:45:24.942Z,52.10
2018-06-02T13:47:52.431Z,52.00
2018-06-02T13:50:23.863Z,51.60
2018-06-02T13:52:51.381Z,50.30
2018-06-02T13:55:18.859Z,50.80
2018-06-02T13:57:46.354Z,52.70
2018-06-02T14:00:13.837Z,51.40
2018-06-02T14:02:41.318Z,50.80
2018-06-02T14:05:08.811Z,47.50
2018-06-02T14:07:36.288Z,47.40
2018-06-02T14:10:03.827Z,43.30
2018-06-02T14:12:31.368Z,43.60
2018-06-02T14:15:00.345Z,36.70
2018-06-02T14:17:27.831Z,36.70
2018-06-02T14:19:55.301Z,37.60
2018-06-02T14:22:22.797Z,36.80
2018-06-02T14:24:50.290Z,39.50
2018-06-02T14:27:17.826Z,41.00
2018-06-02T14:29:45.311Z,40.00
2018-06-02T14:32:12.806Z,37.70
2018-06-02T14:34:40.319Z,38.00
2018-06-02T14:37:07.810Z,39.20
2018-06-02T14:39:35.287Z,37.50
2018-06-02T14:42:02.809Z,36.70
2018-06-02T14:44:30.317Z,37.40
2018-06-02T14:46:57.838Z,40.70
2018-06-02T14:49:25.368Z,42.50
2018-06-02T14:51:53.626Z,38.10
2018-06-02T14:54:21.887Z,37.30
2018-06-02T14:56:50.222Z,37.80
2018-06-02T14:59:17.716Z,37.80
2018-06-02T15:01:45.965Z,39.40
2018-06-02T15:04:13.462Z,38.80
2018-06-02T15:06:41.732Z,45.10
2018-06-02T15:09:10.037Z,47.60
2018-06-02T15:11:37.516Z,47.00
2018-06-02T15:14:05.035Z,47.00
2018-06-02T15:16:33.290Z,45.50
2018-06-02T15:19:01.530Z,42.90
2018-06-02T15:21:29.037Z,42.90
2018-06-02T15:23:57.299Z,47.00
2018-06-02T15:26:25.576Z,49.50
2018-06-02T15:28:53.832Z,49.50
2018-06-02T15:31:21.340Z,49.40
2018-06-02T15:33:49.581Z,53.10
2018-06-02T15:36:17.823Z,51.90
2018-06-02T15:38:45.325Z,51.90
2018-06-02T15:41:12.806Z,52.00
2018-06-02T15:43:40.295Z,49.40
2018-06-02T15:46:07.763Z,48.30
2018-06-02T15:48:35.427Z,44.50
2018-06-02T15:51:02.763Z,41.20
2018-06-02T15:53:30.234Z,38.00
2018-06-02T15:55:57.743Z,38.10
2018-06-02T15:58:25.230Z,38.50
2018-06-02T16:00:52.718Z,37.30
2018-06-02T16:03:20.962Z,35.40
2018-06-02T16:05:48.468Z,35.30
2018-06-02T16:08:15.942Z,36.50
2018-06-02T16:10:43.457Z,38.60
2018-06-02T16:13:11.713Z,41.70
2018-06-02T16:15:39.216Z,41.70
2018-06-02T16:18:06.703Z,44.30
2018-06-02T16:20:34.234Z,45.70
2018-06-02T16:23:01.716Z,46.90
2018-06-02T16:25:29.261Z,47.80
2018-06-02T16:27:56.748Z,48.00
2018-06-02T16:30:24.262Z,49.50
2018-06-02T16:32:51.731Z,51.20
2018-06-02T16:35:19.211Z,48.10
2018-06-02T16:37:46.697Z,43.60
2018-06-02T16:40:14.981Z,38.60
2018-06-02T16:42:43.260Z,37.10
2018-06-02T16:45:11.614Z,36.80
2018-06-02T16:47:39.085Z,36.70
2018-06-02T16:50:07.360Z,37.10
2018-06-02T16:52:35.623Z,40.00
2018-06-02T16:55:03.422Z,40.00
2018-06-02T16:57:30.930Z,43.40
2018-06-02T16:59:58.398Z,44.80
2018-06-02T17:02:25.891Z,44.00
2018-06-02T17:04:53.376Z,41.20
2018-06-02T17:07:20.859Z,38.70
2018-06-02T17:09:48.348Z,37.40
2018-06-02T17:12:15.824Z,35.40
2018-06-02T17:14:43.304Z,34.30
2018-06-02T17:17:10.809Z,33.40
2018-06-02T17:19:39.060Z,33.50
2018-06-02T17:22:06.550Z,33.50
2018-06-02T17:24:34.031Z,33.60
2018-06-02T17:27:01.511Z,34.70
2018-06-02T17:29:29.005Z,34.00
2018-06-02T17:31:57.267Z,33.40
2018-06-02T17:34:24.773Z,33.40
2018-06-02T17:36:52.245Z,33.60
2018-06-02T17:39:19.750Z,34.00
2018-06-02T17:41:48.025Z,34.90
2018-06-02T17:44:16.284Z,35.40
2018-06-02T17:46:43.765Z,35.40
2018-06-02T17:49:11.256Z,36.50
2018-06-02T17:51:38.841Z,35.30
2018-06-02T17:54:06.314Z,36.00
2018-06-02T17:56:33.874Z,35.70
2018-06-02T17:59:02.166Z,40.90
2018-06-02T18:01:29.756Z,40.60
2018-06-02T18:03:57.276Z,44.40
2018-06-02T18:06:25.523Z,50.10
2018-06-02T18:08:52.993Z,50.00
2018-06-02T18:11:20.530Z,51.70
2018-06-02T18:13:49.554Z,54.90
2018-06-02T18:16:17.899Z,56.30
2018-06-02T18:18:45.361Z,56.30
2018-06-02T18:21:12.863Z,58.00
2018-06-02T18:23:40.330Z,59.00
2018-06-02T18:26:07.875Z,61.10
2018-06-02T18:28:35.333Z,62.60
2018-06-02T18:31:02.824Z,63.80
2018-06-02T18:33:30.312Z,64.90
2018-06-02T18:35:58.559Z,67.40
2018-06-02T18:38:26.079Z,67.40
2018-06-02T18:40:53.593Z,68.70
2018-06-02T18:43:21.116Z,70.10
2018-06-02T18:45:48.589Z,71.40
2018-06-02T18:48:16.087Z,72.80
2018-06-02T18:50:44.360Z,75.90
2018-06-02T18:53:12.643Z,77.10
2018-06-02T18:55:40.932Z,77.80
2018-06-02T18:58:08.432Z,77.80
2018-06-02T19:00:35.941Z,78.30
2018-06-02T19:03:03.429Z,78.90
2018-06-02T19:05:30.919Z,78.90
2018-06-02T19:07:58.448Z,78.30
2018-06-02T19:10:25.931Z,78.70
2018-06-02T19:12:53.399Z,79.30
2018-06-02T19:15:21.746Z,80.10
2018-06-02T19:17:49.172Z,80.10
2018-06-02T19:20:16.665Z,80.10
2018-06-02T19:22:44.171Z,80.50
2018-06-02T19:25:11.641Z,80.40
2018-06-02T19:27:39.145Z,81.00
2018-06-02T19:30:06.664Z,80.90
2018-06-02T19:32:34.174Z,81.00
2018-06-02T19:35:02.408Z,82.20
2018-06-02T19:37:29.898Z,82.20
2018-06-02T19:39:58.146Z,82.30
2018-06-02T19:42:57.982Z,82.30
2018-06-02T19:45:26.557Z,82.90
2018-06-02T19:47:55.074Z,83.50
2018-06-02T19:50:23.603Z,83.80
2018-06-02T19:52:52.098Z,84.10
2018-06-02T19:55:20.591Z,84.00
2018-06-02T19:57:49.073Z,84.90
2018-06-02T20:00:17.717Z,84.60
2018-06-02T20:02:46.392Z,85.30
2018-06-02T20:05:15.251Z,86.00
2018-06-02T20:07:43.888Z,86.60
2018-06-02T20:10:12.381Z,87.00
2018-06-02T20:12:41.095Z,86.70
2018-06-02T20:15:09.732Z,86.30
2018-06-02T20:17:38.452Z,86.20
2018-06-02T20:20:06.968Z,86.10
2018-06-02T20:22:35.474Z,85.70
2018-06-02T20:25:04.071Z,85.20
2018-06-02T20:27:32.568Z,86.10
2018-06-02T20:32:29.385Z,88.10
2018-06-02T20:34:58.024Z,88.00
2018-06-02T20:37:26.574Z,88.20
2018-06-02T20:39:55.056Z,87.80
2018-06-02T20:42:23.830Z,87.60
2018-06-02T20:44:52.343Z,88.00
2018-06-02T20:47:20.939Z,87.90
2018-06-02T20:49:49.497Z,88.30
2018-06-02T20:52:18.069Z,89.00
2018-06-02T20:54:48.699Z,89.10
2018-06-02T20:57:17.304Z,89.30
2018-06-02T20:59:45.863Z,88.60
2018-06-02T21:02:14.433Z,88.80
2018-06-02T21:04:43.061Z,89.30
2018-06-02T21:07:12.152Z,89.40
2018-06-02T21:09:40.796Z,89.40
2018-06-02T21:12:09.325Z,89.30
2018-06-02T21:14:37.807Z,89.40
2018-06-02T21:17:06.960Z,89.50
2018-06-02T21:19:35.463Z,89.50
2018-06-02T21:22:04.005Z,89.40
2018-06-02T21:24:32.507Z,89.00
2018-06-02T21:27:00.940Z,89.30
2018-06-02T21:29:29.416Z,89.10
2018-06-02T21:31:57.919Z,89.20
2018-06-02T21:34:26.489Z,89.10
2018-06-02T21:36:54.962Z,89.10
2018-06-02T21:39:23.557Z,89.50
2018-06-02T21:41:52.040Z,89.80
2018-06-02T21:44:20.642Z,90.10
2018-06-02T21:46:49.099Z,90.20
2018-06-02T21:49:17.833Z,90.20
2018-06-02T21:51:46.322Z,90.30
2018-06-02T21:54:14.789Z,90.40
2018-06-02T21:56:43.321Z,90.50
2018-06-02T21:59:11.952Z,90.50
2018-06-02T22:01:40.787Z,90.60
2018-06-02T22:04:09.266Z,90.80
2018-06-02T22:06:38.855Z,90.70
2018-06-02T22:09:07.518Z,90.80
2018-06-02T22:11:36.082Z,90.80
2018-06-02T22:14:04.781Z,90.80
2018-06-02T22:16:33.311Z,90.80
2018-06-02T22:19:01.891Z,90.90
2018-06-02T22:21:30.407Z,90.90
2018-06-02T22:23:58.927Z,91.00
2018-06-02T22:26:27.572Z,91.10
2018-06-02T22:28:56.034Z,91.00
2018-06-02T22:31:24.448Z,90.90
2018-06-02T22:33:52.945Z,90.80
2018-06-02T22:36:21.646Z,90.80
2018-06-02T22:38:50.103Z,90.80
2018-06-02T22:41:18.594Z,90.90
2018-06-02T22:43:47.219Z,90.70
2018-06-02T22:46:15.649Z,90.80
2018-06-02T22:48:44.224Z,90.80
2018-06-02T22:51:12.858Z,90.90
2018-06-02T22:53:41.513Z,91.10
2018-06-02T22:56:10.076Z,91.10
2018-06-02T22:58:38.765Z,90.90
2018-06-02T23:01:07.312Z,91.30
2018-06-02T23:03:35.961Z,91.30
2018-06-02T23:06:04.558Z,91.50
2018-06-02T23:08:33.216Z,91.20
2018-06-02T23:11:01.773Z,90.90
2018-06-02T23:13:30.283Z,90.90
2018-06-02T23:15:58.782Z,91.00
2018-06-02T23:18:27.236Z,90.90
2018-06-02T23:20:55.773Z,91.00
2018-06-02T23:23:24.300Z,91.10
2018-06-02T23:25:53.003Z,91.30
2018-06-02T23:28:21.433Z,91.40
2018-06-02T23:30:49.955Z,91.40
2018-06-02T23:33:18.352Z,91.10
2018-06-02T23:35:46.827Z,91.00
2018-06-02T23:38:15.297Z,90.90
2018-06-02T23:40:43.959Z,90.80
2018-06-02T23:43:12.447Z,91.10
2018-06-02T23:45:40.891Z,91.00
2018-06-02T23:48:09.319Z,91.20
2018-06-02T23:50:37.788Z,91.10
2018-06-02T23:53:06.216Z,91.20
2018-06-02T23:55:34.752Z,91.20
2018-06-02T23:58:03.428Z,91.20
